Time;durP1;ratioP1;P1;durP2;ratioP2;P2;SDS_P1;SDS_P2;PMS_P1;PMS_P2;Temp;Humidity;BMP_temperature;BMP_pressure;BME280_temperature;BME280_humidity;BME280_pressure;Samples;Min_cycle;Max_cycle;Signal;HPM_P1;HPM_P2
2023/04/07 00:00:23;;;;;;;26.77;18.85;;;7.90;99.90;;;;;;5070348;28;20048;-72
2023/04/07 00:02:49;;;;;;;27.70;18.77;;;7.90;99.90;;;;;;5070199;28;20178;-72
2023/04/07 00:05:15;;;;;;;26.77;19.67;;;7.80;99.90;;;;;;5070231;28;20049;-72
2023/04/07 00:07:40;;;;;;;29.65;20.55;;;7.90;99.90;;;;;;5070328;28;20508;-73
2023/04/07 00:10:07;;;;;;;29.10;18.98;;;7.80;99.90;;;;;;5071663;28;20045;-72
2023/04/07 00:12:33;;;;;;;28.88;19.38;;;7.80;99.90;;;;;;5070195;28;20041;-72
2023/04/07 00:14:58;;;;;;;28.98;20.52;;;7.80;99.90;;;;;;5070032;28;20037;-73
2023/04/07 00:17:24;;;;;;;24.38;19.67;;;7.80;99.90;;;;;;5070192;28;20092;-73
2023/04/07 00:19:49;;;;;;;28.13;19.52;;;7.80;99.90;;;;;;5070182;28;20044;-73
2023/04/07 00:22:15;;;;;;;29.73;20.58;;;7.80;99.90;;;;;;5070054;28;20039;-73
2023/04/07 00:24:41;;;;;;;29.60;20.50;;;7.80;99.90;;;;;;5069974;28;20084;-73
2023/04/07 00:27:06;;;;;;;33.83;21.38;;;7.80;99.90;;;;;;5070074;28;20040;-73
2023/04/07 00:29:32;;;;;;;29.23;20.92;;;7.80;99.90;;;;;;5071365;28;20086;-73
2023/04/07 00:31:57;;;;;;;28.92;20.52;;;7.80;99.90;;;;;;5069937;28;20032;-73
2023/04/07 00:34:23;;;;;;;29.60;20.20;;;7.80;99.90;;;;;;5071068;28;20420;-73
2023/04/07 00:36:51;;;;;;;30.05;21.00;;;7.80;99.90;;;;;;5070001;28;20492;-73
2023/04/07 00:39:17;;;;;;;26.73;20.25;;;7.80;99.90;;;;;;5071165;28;20051;-73
2023/04/07 00:41:44;;;;;;;28.27;21.00;;;7.90;99.90;;;;;;5069764;28;20041;-73
2023/04/07 00:44:10;;;;;;;29.83;20.92;;;7.80;99.90;;;;;;5053105;28;20488;-73
2023/04/07 00:46:36;;;;;;;27.67;20.00;;;7.90;99.90;;;;;;5071119;28;20049;-73
2023/04/07 00:49:02;;;;;;;32.00;21.98;;;7.80;99.90;;;;;;5069891;28;20480;-73
2023/04/07 00:51:27;;;;;;;27.30;20.52;;;7.90;99.90;;;;;;5073101;28;20137;-73
2023/04/07 00:53:54;;;;;;;33.50;21.98;;;7.80;99.90;;;;;;5074284;28;20036;-73
2023/04/07 00:56:19;;;;;;;32.28;21.63;;;7.90;99.90;;;;;;5074387;28;20072;-73
2023/04/07 00:58:45;;;;;;;30.90;21.52;;;7.90;99.90;;;;;;5073332;28;20129;-73
2023/04/07 01:01:32;;;;;;;27.35;19.75;;;7.90;99.90;;;;;;5074408;28;20043;-73
2023/04/07 01:04:04;;;;;;;29.17;21.25;;;7.80;99.90;;;;;;5072959;28;20044;-73
2023/04/07 01:06:34;;;;;;;29.95;20.80;;;7.80;99.90;;;;;;5072782;28;20420;-73
2023/04/07 01:09:13;;;;;;;32.25;21.90;;;7.80;99.90;;;;;;5072990;28;20119;-73
2023/04/07 01:12:11;;;;;;;31.73;22.42;;;7.80;99.90;;;;;;5074135;28;20045;-73
2023/04/07 01:14:44;;;;;;;29.98;20.98;;;7.80;99.90;;;;;;5074045;28;20119;-73
2023/04/07 01:17:11;;;;;;;;;;;7.70;99.90;;;;;;5073148;28;20040;-73
2023/04/07 01:19:40;;;;;;;29.05;21.83;;;7.70;99.90;;;;;;5072882;28;19916;-73
2023/04/07 01:22:11;;;;;;;30.40;21.98;;;7.70;99.90;;;;;;5072324;28;20048;-73
2023/04/07 01:25:16;;;;;;;30.55;21.80;;;7.70;99.90;;;;;;5072821;28;20051;-73
2023/04/07 01:28:25;;;;;;;29.05;21.25;;;7.70;99.90;;;;;;5072724;28;20085;-73
2023/04/07 01:30:54;;;;;;;33.08;22.05;;;7.70;99.90;;;;;;5051677;28;20120;-73
2023/04/07 01:33:20;;;;;;;33.47;22.92;;;7.70;99.90;;;;;;5072582;28;20673;-73
2023/04/07 01:35:47;;;;;;;33.17;23.35;;;7.70;99.90;;;;;;5072699;28;20052;-73
2023/04/07 01:38:13;;;;;;;31.30;23.20;;;7.70;99.90;;;;;;5072705;28;20044;-73
2023/04/07 01:40:40;;;;;;;29.02;21.02;;;7.80;99.90;;;;;;5073963;28;20413;-73
2023/04/07 01:43:07;;;;;;;28.70;20.60;;;7.80;99.90;;;;;;5073940;28;20051;-73
2023/04/07 01:45:35;;;;;;;31.33;21.95;;;7.80;99.90;;;;;;5073448;28;20076;-73
2023/04/07 01:48:01;;;;;;;27.35;21.02;;;7.80;99.90;;;;;;5073624;28;20039;-73
2023/04/07 01:50:29;;;;;;;31.67;22.90;;;7.80;99.90;;;;;;5072415;28;20048;-73
2023/04/07 01:52:55;;;;;;;34.70;22.58;;;7.80;99.90;;;;;;5072141;28;20033;-73
2023/04/07 01:55:21;;;;;;;29.35;20.70;;;7.80;99.90;;;;;;5072119;28;20072;-73
2023/04/07 01:57:47;;;;;;;29.70;21.83;;;7.80;99.90;;;;;;5072528;28;20445;-73
2023/04/07 02:00:13;;;;;;;31.88;23.65;;;7.80;99.90;;;;;;5072020;28;20127;-73
2023/04/07 02:02:42;;;;;;;30.80;22.90;;;7.80;99.90;;;;;;5071234;28;20044;-73
2023/04/07 02:05:13;;;;;;;31.05;21.65;;;7.80;99.90;;;;;;5071495;28;20058;-73
2023/04/07 02:07:51;;;;;;;31.40;21.30;;;7.70;99.90;;;;;;5073481;28;20086;-73
2023/04/07 02:10:21;;;;;;;30.50;22.17;;;7.80;99.90;;;;;;5073112;28;20041;-73
2023/04/07 02:12:47;;;;;;;35.60;23.63;;;7.70;99.90;;;;;;5072933;28;20041;-73
2023/04/07 02:15:15;;;;;;;28.98;22.73;;;7.80;99.90;;;;;;5072646;28;20454;-73
2023/04/07 02:17:43;;;;;;;34.30;24.30;;;7.70;99.90;;;;;;5055193;28;20465;-73
2023/04/07 02:20:10;;;;;;;32.08;22.10;;;7.70;99.90;;;;;;5072891;28;20036;-73
2023/04/07 02:22:41;;;;;;;33.17;23.63;;;7.70;99.90;;;;;;5072827;28;20131;-73
2023/04/07 02:25:24;;;;;;;31.42;22.65;;;7.70;99.90;;;;;;5072372;28;20044;-73
2023/04/07 02:27:50;;;;;;;28.80;22.05;;;7.70;99.90;;;;;;5071313;28;20037;-73
2023/04/07 02:30:16;;;;;;;34.92;23.48;;;7.70;99.90;;;;;;5071369;28;20036;-73
2023/04/07 02:32:41;;;;;;;39.90;26.27;;;7.70;99.90;;;;;;5071429;28;20102;-73
2023/04/07 02:35:07;;;;;;;38.40;25.83;;;7.60;99.90;;;;;;5072335;28;20049;-73
2023/04/07 02:37:32;;;;;;;36.08;24.23;;;7.60;99.90;;;;;;5071420;28;20432;-73
2023/04/07 02:39:58;;;;;;;34.55;24.60;;;7.60;99.90;;;;;;5071209;28;20052;-73
2023/04/07 02:42:24;;;;;;;32.58;23.77;;;7.70;99.90;;;;;;5072146;28;20037;-73
2023/04/07 02:44:50;;;;;;;35.85;23.95;;;7.70;99.90;;;;;;5070975;28;20049;-73
2023/04/07 02:47:15;;;;;;;38.95;24.50;;;7.60;99.90;;;;;;5072253;28;20051;-73
2023/04/07 02:49:41;;;;;;;33.63;24.55;;;7.60;99.90;;;;;;5071137;28;20043;-73
2023/04/07 02:52:07;;;;;;;38.03;24.45;;;7.60;99.90;;;;;;5070931;28;20495;-73
2023/04/07 02:54:32;;;;;;;33.85;23.42;;;7.60;99.90;;;;;;5071362;28;20174;-73
2023/04/07 02:56:58;;;;;;;33.95;24.83;;;7.60;99.90;;;;;;5069572;28;20032;-73
2023/04/07 02:59:23;;;;;;;35.33;24.58;;;7.60;99.90;;;;;;5071821;28;20042;-73
2023/04/07 03:01:49;;;;;;;34.47;23.98;;;7.60;99.90;;;;;;5071759;28;20032;-73
2023/04/07 03:04:15;;;;;;;36.85;24.00;;;7.60;99.90;;;;;;5070216;28;20036;-73
2023/04/07 03:06:40;;;;;;;35.13;23.80;;;7.60;99.90;;;;;;5071495;28;20129;-73
2023/04/07 03:09:06;;;;;;;34.95;22.95;;;7.70;99.90;;;;;;5070404;28;20119;-73
2023/04/07 03:11:31;;;;;;;32.63;22.83;;;7.60;99.90;;;;;;5070430;28;20116;-73
2023/04/07 03:13:57;;;;;;;31.40;22.38;;;7.60;99.90;;;;;;5069436;28;20048;-73
2023/04/07 03:16:22;;;;;;;30.52;21.45;;;7.60;99.90;;;;;;5070996;28;20048;-73
2023/04/07 03:18:48;;;;;;;31.38;22.10;;;7.60;99.90;;;;;;5070800;28;20040;-73
2023/04/07 03:21:13;;;;;;;31.38;22.65;;;7.60;99.90;;;;;;5070911;28;20045;-73
2023/04/07 03:23:39;;;;;;;30.05;21.25;;;7.60;99.90;;;;;;5070864;28;20048;-73
2023/04/07 03:26:05;;;;;;;35.35;23.20;;;7.60;99.90;;;;;;5070372;28;20040;-73
2023/04/07 03:28:31;;;;;;;30.80;22.02;;;7.60;99.90;;;;;;5070754;28;20036;-73
2023/04/07 03:30:56;;;;;;;32.10;22.60;;;7.70;99.90;;;;;;5070847;28;20496;-73
2023/04/07 03:33:22;;;;;;;32.85;22.60;;;7.60;99.90;;;;;;5072037;28;20036;-73
2023/04/07 03:35:47;;;;;;;30.58;21.73;;;7.60;99.90;;;;;;5071815;28;20115;-73
2023/04/07 03:38:13;;;;;;;33.20;21.58;;;7.60;99.90;;;;;;5070926;28;20527;-73
2023/04/07 03:40:38;;;;;;;28.88;21.80;;;7.60;99.90;;;;;;5070423;28;20055;-73
2023/04/07 03:43:04;;;;;;;33.58;23.60;;;7.60;99.90;;;;;;5070567;28;20040;-73
2023/04/07 03:45:32;;;;;;;34.47;22.23;;;7.50;99.90;;;;;;5070419;28;20052;-73
2023/04/07 03:47:57;;;;;;;35.55;22.50;;;7.50;99.90;;;;;;5070724;28;20048;-73
2023/04/07 03:50:23;;;;;;;34.17;23.40;;;7.50;99.90;;;;;;5070527;28;20040;-73
2023/04/07 03:52:48;;;;;;;33.38;21.95;;;7.60;99.90;;;;;;5070382;28;20047;-73
2023/04/07 03:55:14;;;;;;;31.80;22.45;;;7.60;99.90;;;;;;5070442;28;20041;-74
2023/04/07 03:57:40;;;;;;;32.42;21.63;;;7.60;99.90;;;;;;5070471;28;20036;-73
2023/04/07 04:00:06;;;;;;;33.05;22.58;;;7.60;99.90;;;;;;5070526;28;20036;-73
2023/04/07 04:02:31;;;;;;;32.65;23.80;;;7.50;99.90;;;;;;5070433;28;20508;-73
2023/04/07 04:04:57;;;;;;;30.70;20.48;;;7.50;99.90;;;;;;5071424;28;20123;-73
2023/04/07 04:07:22;;;;;;;29.13;22.10;;;7.50;99.90;;;;;;5071729;28;20496;-74
2023/04/07 04:09:48;;;;;;;30.23;20.58;;;7.50;99.90;;;;;;5070317;28;20051;-73
2023/04/07 04:12:13;;;;;;;30.90;21.73;;;7.60;99.90;;;;;;5070704;28;20369;-74
2023/04/07 04:14:39;;;;;;;31.00;21.23;;;7.60;99.90;;;;;;5070488;28;20039;-74
2023/04/07 04:17:04;;;;;;;31.60;21.40;;;7.50;99.90;;;;;;5070528;28;20123;-74
2023/04/07 04:19:30;;;;;;;30.85;20.88;;;7.60;99.90;;;;;;5070469;28;20029;-74
2023/04/07 04:21:55;;;;;;;29.90;20.25;;;7.50;99.90;;;;;;5070231;28;20052;-73
2023/04/07 04:24:21;;;;;;;28.55;19.77;;;7.50;99.90;;;;;;5070743;28;20041;-74
2023/04/07 04:26:46;;;;;;;30.33;21.17;;;7.50;99.90;;;;;;5073644;28;20044;-74
2023/04/07 04:29:12;;;;;;;33.13;20.83;;;7.50;99.90;;;;;;5073862;28;20041;-74
2023/04/07 04:31:37;;;;;;;29.77;19.75;;;7.50;99.90;;;;;;5075123;28;20530;-73
2023/04/07 04:34:03;;;;;;;28.98;17.75;;;7.50;99.90;;;;;;5074849;28;20032;-74
2023/04/07 04:36:30;;;;;;;25.08;16.85;;;7.50;99.90;;;;;;5073593;28;20044;-73
2023/04/07 04:38:55;;;;;;;26.38;18.35;;;7.50;99.90;;;;;;5073689;28;20102;-73
2023/04/07 04:41:21;;;;;;;28.98;18.35;;;7.50;99.90;;;;;;5100201;22;20044;-79
2023/04/07 04:43:46;;;;;;;26.45;18.85;;;7.50;99.90;;;;;;5095891;28;20040;-79
2023/04/07 04:46:12;;;;;;;29.60;19.55;;;7.50;99.90;;;;;;5095150;28;20036;-79
2023/04/07 04:48:37;;;;;;;26.02;17.63;;;7.50;99.90;;;;;;5079127;28;20499;-78
2023/04/07 04:51:03;;;;;;;26.23;18.35;;;7.40;99.90;;;;;;5095618;28;20036;-79
2023/04/07 04:53:29;;;;;;;27.30;18.65;;;7.50;99.90;;;;;;5095428;28;20253;-79
2023/04/07 04:55:55;;;;;;;30.48;19.50;;;7.50;99.90;;;;;;5078451;28;20127;-79
2023/04/07 04:58:20;;;;;;;30.40;19.25;;;7.40;99.90;;;;;;5095696;28;20039;-79
2023/04/07 05:00:46;;;;;;;26.95;17.10;;;7.40;99.90;;;;;;5095501;28;20052;-79
2023/04/07 05:03:11;;;;;;;26.33;18.25;;;7.40;99.90;;;;;;5078753;28;20047;-79
2023/04/07 05:05:37;;;;;;;26.92;18.35;;;7.40;99.90;;;;;;5095053;28;20036;-78
2023/04/07 05:08:03;;;;;;;27.00;19.17;;;7.40;99.90;;;;;;5096000;28;20040;-78
2023/04/07 05:10:28;;;;;;;25.02;16.90;;;7.40;99.90;;;;;;5095209;28;20036;-78
2023/04/07 05:12:54;;;;;;;29.05;18.42;;;7.40;99.90;;;;;;5095237;28;20032;-78
2023/04/07 05:15:20;;;;;;;27.45;19.45;;;7.50;99.90;;;;;;5094891;28;20079;-79
2023/04/07 05:17:49;;;;;;;27.02;18.23;;;7.40;99.90;;;;;;5095464;28;20032;-79
2023/04/07 05:20:15;;;;;;;26.75;18.48;;;7.40;99.90;;;;;;5095123;28;20461;-78
2023/04/07 05:22:41;;;;;;;27.70;17.80;;;7.50;99.90;;;;;;5095132;28;20066;-78
2023/04/07 05:25:07;;;;;;;30.40;19.67;;;7.40;99.90;;;;;;5094786;28;20032;-78
2023/04/07 05:27:32;;;;;;;28.67;19.52;;;7.40;99.90;;;;;;5095637;28;20483;-78
2023/04/07 05:29:58;;;;;;;30.58;18.38;;;7.40;99.90;;;;;;5094605;28;20036;-78
2023/04/07 05:32:23;;;;;;;28.15;17.75;;;7.40;99.90;;;;;;5094582;28;20044;-78
2023/04/07 05:34:49;;;;;;;31.25;20.65;;;7.40;99.90;;;;;;5077996;28;20529;-78
2023/04/07 05:37:15;;;;;;;29.65;19.05;;;7.40;99.90;;;;;;5093796;28;20185;-78
2023/04/07 05:39:40;;;;;;;28.45;19.95;;;7.40;99.90;;;;;;5094231;28;20043;-78
2023/04/07 05:42:06;;;;;;;28.55;19.30;;;7.40;99.90;;;;;;5077133;28;20066;-78
2023/04/07 05:44:32;;;;;;;27.13;18.33;;;7.40;99.90;;;;;;5094227;28;20518;-78
2023/04/07 05:46:57;;;;;;;26.70;18.60;;;7.40;99.90;;;;;;5077405;28;20036;-78
2023/04/07 05:49:23;;;;;;;27.25;19.35;;;7.40;99.90;;;;;;5077908;28;20051;-79
2023/04/07 05:51:48;;;;;;;27.70;19.33;;;7.40;99.90;;;;;;5094352;28;20119;-78
2023/04/07 05:54:14;;;;;;;27.48;19.27;;;7.40;99.90;;;;;;5094184;28;20032;-78
2023/04/07 05:56:40;;;;;;;30.40;18.75;;;7.40;99.90;;;;;;5094157;28;20043;-78
2023/04/07 05:59:05;;;;;;;28.15;20.27;;;7.40;99.90;;;;;;5094427;28;20119;-78
2023/04/07 06:01:31;;;;;;;29.08;19.63;;;7.40;99.90;;;;;;5077471;28;20044;-78
2023/04/07 06:03:57;;;;;;;30.92;19.85;;;7.40;99.90;;;;;;5093621;28;20040;-78
2023/04/07 06:06:23;;;;;;;27.13;19.60;;;7.50;99.90;;;;;;5092798;28;20040;-77
2023/04/07 06:08:49;;;;;;;28.65;19.58;;;7.50;99.90;;;;;;5075248;28;20040;-77
2023/04/07 06:11:15;;;;;;;27.52;18.88;;;7.50;99.90;;;;;;5092290;28;20043;-77
2023/04/07 06:13:40;;;;;;;26.50;18.50;;;7.50;99.90;;;;;;5092361;28;20036;-78
2023/04/07 06:16:06;;;;;;;24.95;18.58;;;7.50;99.90;;;;;;5075491;28;20067;-77
2023/04/07 06:18:31;;;;;;;28.30;18.60;;;7.50;99.90;;;;;;5092365;28;20507;-77
2023/04/07 06:20:57;;;;;;;30.50;18.45;;;7.50;99.90;;;;;;5092793;28;20051;-78
2023/04/07 06:23:22;;;;;;;27.00;18.25;;;7.50;99.90;;;;;;5092450;28;20040;-78
2023/04/07 06:25:52;;;;;;;25.50;18.70;;;7.50;99.90;;;;;;5092976;28;20414;-78
2023/04/07 06:28:18;;;;;;;32.05;19.08;;;7.60;99.90;;;;;;5092248;28;20446;-77
2023/04/07 06:30:43;;;;;;;27.10;18.75;;;7.60;99.90;;;;;;5083870;28;20037;-77
2023/04/07 06:33:09;;;;;;;26.92;18.63;;;7.60;99.90;;;;;;5087901;28;20048;-77
2023/04/07 06:35:34;;;;;;;28.20;19.30;;;7.70;99.90;;;;;;5091413;28;20051;-77
2023/04/07 06:38:01;;;;;;;29.85;19.63;;;7.60;99.90;;;;;;5091750;28;20044;-77
2023/04/07 06:40:26;;;;;;;28.92;17.63;;;7.70;99.90;;;;;;5075409;28;20036;-77
2023/04/07 06:42:53;;;;;;;26.27;17.27;;;7.70;99.90;;;;;;5093537;28;20070;-77
2023/04/07 06:45:19;;;;;;;28.73;18.45;;;7.70;99.90;;;;;;5094529;28;20044;-77
2023/04/07 06:47:44;;;;;;;27.48;18.20;;;7.70;99.90;;;;;;5090170;28;20039;-77
2023/04/07 06:50:10;;;;;;;30.02;20.02;;;7.80;99.90;;;;;;5080464;28;20032;-77
2023/04/07 06:52:36;;;;;;;27.42;19.30;;;7.80;99.90;;;;;;5072806;28;20071;-77
2023/04/07 06:55:02;;;;;;;28.30;18.58;;;7.80;99.90;;;;;;5071199;28;20124;-78
2023/04/07 06:57:30;;;;;;;28.67;20.63;;;7.90;99.90;;;;;;5072979;28;20393;-78
2023/04/07 06:59:56;;;;;;;29.40;19.33;;;7.90;99.90;;;;;;5056736;28;20040;-78
2023/04/07 07:02:21;;;;;;;27.17;19.63;;;7.90;99.90;;;;;;5076036;28;20084;-77
2023/04/07 07:04:47;;;;;;;28.42;18.88;;;8.00;99.90;;;;;;5079270;28;20037;-77
2023/04/07 07:07:12;;;;;;;27.50;19.15;;;8.00;99.90;;;;;;5064019;28;20036;-77
2023/04/07 07:09:38;;;;;;;30.05;19.08;;;8.00;99.90;;;;;;5081244;28;20576;-77
2023/04/07 07:12:05;;;;;;;26.83;18.25;;;8.00;99.90;;;;;;5088664;28;20446;-77
2023/04/07 07:14:30;;;;;;;27.40;18.58;;;8.10;99.90;;;;;;5090835;28;20044;-77
2023/04/07 07:16:59;;;;;;;29.20;18.52;;;8.10;99.90;;;;;;5091059;28;20036;-77
2023/04/07 07:19:24;;;;;;;27.77;18.00;;;8.10;99.90;;;;;;5091148;28;20036;-77
2023/04/07 07:21:50;;;;;;;25.25;17.67;;;8.10;99.90;;;;;;5091705;28;20122;-77
2023/04/07 07:24:15;;;;;;;29.45;18.05;;;8.20;99.90;;;;;;5090736;28;20127;-77
2023/04/07 07:26:41;;;;;;;26.45;18.85;;;8.20;99.90;;;;;;5090551;28;20043;-77
2023/04/07 07:29:07;;;;;;;26.27;17.38;;;8.20;99.90;;;;;;5091161;28;20062;-78
2023/04/07 07:31:32;;;;;;;25.55;17.08;;;8.20;99.90;;;;;;5091648;28;20036;-78
2023/04/07 07:33:58;;;;;;;26.08;16.17;;;8.20;99.90;;;;;;5091657;28;20093;-77
2023/04/07 07:36:25;;;;;;;23.08;16.70;;;8.20;99.90;;;;;;5092213;28;20032;-78
2023/04/07 07:38:51;;;;;;;24.30;16.90;;;8.30;99.90;;;;;;5094006;28;20513;-77
2023/04/07 07:41:16;;;;;;;22.90;15.90;;;8.20;99.90;;;;;;5093185;28;20064;-78
2023/04/07 07:43:42;;;;;;;23.73;15.88;;;8.30;99.90;;;;;;5093830;28;20069;-78
2023/04/07 07:46:07;;;;;;;20.60;15.20;;;8.20;99.90;;;;;;5093688;28;20144;-78
2023/04/07 07:48:33;;;;;;;20.70;15.63;;;8.30;99.90;;;;;;5090265;28;20151;-78
2023/04/07 07:50:58;;;;;;;22.38;16.58;;;8.30;99.90;;;;;;5073597;28;20050;-77
2023/04/07 07:53:24;;;;;;;22.13;15.95;;;8.30;99.90;;;;;;5090531;28;20086;-77
2023/04/07 07:55:50;;;;;;;22.58;15.32;;;8.30;99.90;;;;;;5090394;28;20105;-77
2023/04/07 07:58:15;;;;;;;23.63;16.13;;;8.30;99.90;;;;;;5090435;28;20491;-79
2023/04/07 08:00:41;;;;;;;21.10;15.13;;;8.30;99.90;;;;;;5076489;28;20459;-78
2023/04/07 08:03:07;;;;;;;19.55;14.55;;;8.30;99.90;;;;;;5094797;28;20039;-78
2023/04/07 08:05:32;;;;;;;22.95;16.25;;;8.40;99.90;;;;;;5078036;28;20070;-74
2023/04/07 08:07:58;;;;;;;24.70;17.85;;;8.40;99.90;;;;;;5077261;28;20127;-73
2023/04/07 08:10:24;;;;;;;24.13;16.17;;;8.50;99.90;;;;;;5093139;28;20515;-74
2023/04/07 08:12:50;;;;;;;25.40;17.40;;;8.60;99.90;;;;;;5094442;28;20036;-74
2023/04/07 08:15:15;;;;;;;25.73;19.40;;;8.60;99.90;;;;;;5094002;28;20539;-73
2023/04/07 08:17:41;;;;;;;29.13;18.92;;;8.70;99.90;;;;;;5094195;28;20040;-73
2023/04/07 08:20:07;;;;;;;27.10;18.65;;;8.80;99.90;;;;;;5094105;28;20068;-73
2023/04/07 08:22:33;;;;;;;26.00;18.70;;;8.80;99.90;;;;;;5093981;28;20036;-74
2023/04/07 08:24:58;;;;;;;27.80;19.27;;;9.00;99.90;;;;;;5093700;28;20101;-74
2023/04/07 08:27:24;;;;;;;31.42;20.08;;;9.00;99.90;;;;;;5095310;28;20036;-74
2023/04/07 08:30:05;;;;;;;27.50;21.00;;;9.10;99.90;;;;;;5094180;28;20079;-73
2023/04/07 08:32:42;;;;;;;27.60;19.63;;;9.20;99.90;;;;;;5067796;28;20039;-72
2023/04/07 08:35:08;;;;;;;26.92;18.98;;;9.40;99.90;;;;;;5093760;28;20097;-72
2023/04/07 08:37:34;;;;;;;26.65;19.20;;;9.50;99.90;;;;;;5093986;28;20040;-72
2023/04/07 08:40:01;;;;;;;29.23;21.25;;;9.60;99.90;;;;;;5093944;28;20036;-74
2023/04/07 08:42:30;;;;;;;33.47;21.05;;;9.70;99.90;;;;;;5093669;28;20046;-73
2023/04/07 08:44:57;;;;;;;28.77;19.70;;;9.80;99.90;;;;;;5076492;28;20044;-74
2023/04/07 08:47:26;;;;;;;25.13;18.90;;;9.80;99.90;;;;;;5093657;28;20087;-73
2023/04/07 08:49:55;;;;;;;29.83;20.17;;;9.80;99.90;;;;;;5093564;28;20494;-74
2023/04/07 08:52:22;;;;;;;26.10;19.10;;;9.80;99.90;;;;;;5093654;28;20059;-73
2023/04/07 08:54:48;;;;;;;30.90;20.80;;;9.70;99.90;;;;;;5094599;28;20032;-73
2023/04/07 08:57:15;;;;;;;28.65;19.92;;;9.80;99.90;;;;;;5093218;28;20028;-73
2023/04/07 08:59:44;;;;;;;27.17;20.05;;;9.80;99.90;;;;;;5094595;28;20487;-74
2023/04/07 09:02:09;;;;;;;26.70;19.27;;;9.80;99.90;;;;;;5094306;28;20048;-74
2023/04/07 09:04:35;;;;;;;26.67;19.23;;;9.80;99.90;;;;;;5092974;28;20043;-74
2023/04/07 09:07:01;;;;;;;28.50;18.55;;;9.80;99.90;;;;;;5094310;28;20032;-74
2023/04/07 09:09:27;;;;;;;23.88;17.70;;;9.90;99.90;;;;;;5094356;28;20120;-74
2023/04/07 09:11:53;;;;;;;23.60;18.02;;;9.90;99.90;;;;;;5093117;28;20040;-74
2023/04/07 09:14:20;;;;;;;22.25;16.40;;;9.90;99.90;;;;;;5075986;28;20047;-74
2023/04/07 09:16:46;;;;;;;23.73;17.63;;;9.90;99.90;;;;;;5093215;28;20500;-74
2023/04/07 09:19:12;;;;;;;21.80;16.63;;;9.90;99.90;;;;;;5092967;28;20044;-75
2023/04/07 09:21:48;;;;;;;24.88;16.52;;;10.00;99.90;;;;;;5092778;28;20072;-75
2023/04/07 09:24:25;;;;;;;18.83;14.60;;;10.00;99.90;;;;;;5075964;28;20040;-74
2023/04/07 09:27:09;;;;;;;18.92;15.00;;;10.00;99.90;;;;;;5092514;28;20033;-75
2023/04/07 09:29:34;;;;;;;23.33;15.60;;;10.20;99.90;;;;;;5076133;28;20064;-76
2023/04/07 09:32:00;;;;;;;20.85;15.48;;;10.30;99.90;;;;;;5075731;28;20036;-75
2023/04/07 09:34:28;;;;;;;18.30;13.57;;;10.40;99.90;;;;;;5093287;28;20036;-76
2023/04/07 09:36:54;;;;;;;21.52;13.52;;;10.50;99.90;;;;;;5093696;28;20040;-74
2023/04/07 09:39:20;;;;;;;17.60;12.50;;;10.50;99.90;;;;;;5077303;28;20098;-75
2023/04/07 09:41:46;;;;;;;17.98;12.80;;;10.50;99.90;;;;;;5092680;28;20453;-75
2023/04/07 09:44:11;;;;;;;17.23;12.88;;;10.40;99.90;;;;;;5092835;28;20127;-76
2023/04/07 09:46:57;;;;;;;16.17;12.48;;;10.60;99.90;;;;;;5075701;28;20131;-76
2023/04/07 09:49:24;;;;;;;12.05;10.07;;;10.70;99.90;;;;;;5093652;28;20115;-76
2023/04/07 09:51:57;;;;;;;12.95;10.60;;;10.70;99.90;;;;;;5092527;28;20106;-76
2023/04/07 09:54:41;;;;;;;15.43;11.95;;;10.70;99.90;;;;;;5093588;28;20160;-77
2023/04/07 09:57:09;;;;;;;18.58;11.57;;;10.70;99.90;;;;;;5075793;28;20513;-76
2023/04/07 09:59:41;;;;;;;15.90;12.90;;;10.80;99.90;;;;;;5092068;28;20034;-75
2023/04/07 10:02:07;;;;;;;18.42;13.95;;;10.70;99.90;;;;;;5075470;28;20357;-76
2023/04/07 10:04:33;;;;;;;16.85;12.90;;;10.70;99.90;;;;;;5092224;28;20494;-74
2023/04/07 10:06:59;;;;;;;17.77;12.82;;;10.70;99.90;;;;;;5092629;28;20048;-76
2023/04/07 10:09:29;;;;;;;18.17;12.82;;;10.60;99.90;;;;;;5094078;28;20036;-75
2023/04/07 10:11:58;;;;;;;20.05;14.70;;;10.60;99.90;;;;;;5076318;28;20032;-75
2023/04/07 10:14:34;;;;;;;20.15;14.15;;;10.60;99.90;;;;;;5092052;28;20044;-75
2023/04/07 10:17:00;;;;;;;20.52;15.00;;;10.70;99.90;;;;;;5092335;28;20043;-75
2023/04/07 10:19:30;;;;;;;20.95;14.43;;;10.80;99.90;;;;;;5092689;28;20047;-74
2023/04/07 10:21:56;;;;;;;19.48;13.52;;;10.90;99.90;;;;;;5080016;28;20032;-75
2023/04/07 10:24:48;;;;;;;23.10;14.65;;;10.90;99.90;;;;;;5070627;28;20055;-75
2023/04/07 10:27:20;;;;;;;19.02;13.73;;;10.90;99.90;;;;;;5059337;28;20093;-75
2023/04/07 10:29:48;;;;;;;17.48;11.60;;;10.90;99.90;;;;;;5087005;28;20037;-75
2023/04/07 10:32:15;;;;;;;15.73;12.68;;;10.90;99.90;;;;;;5082300;28;20047;-75
2023/04/07 10:34:50;;;;;;;16.65;12.43;;;11.00;99.90;;;;;;5092327;28;20036;-75
2023/04/07 10:37:19;;;;;;;13.45;10.23;;;11.00;99.90;;;;;;5091114;28;20127;-75
2023/04/07 10:39:45;;;;;;;15.25;10.05;;;11.10;99.90;;;;;;5059868;28;20098;-75
2023/04/07 10:42:36;;;;;;;12.25;9.73;;;11.20;99.90;;;;;;5090980;28;20031;-75
2023/04/07 10:45:03;;;;;;;11.93;8.90;;;11.30;99.90;;;;;;5090601;28;20040;-75
2023/04/07 10:47:29;;;;;;;13.52;9.70;;;11.40;99.90;;;;;;5074437;28;20036;-75
2023/04/07 10:50:17;;;;;;;10.23;7.82;;;11.40;99.90;;;;;;5090778;28;20498;-75
2023/04/07 10:52:45;;;;;;;11.38;8.50;;;11.50;99.90;;;;;;5090785;28;20039;-75
2023/04/07 10:55:30;;;;;;;14.02;9.10;;;11.60;99.90;;;;;;5087362;28;20052;-75
2023/04/07 10:58:21;;;;;;;9.70;8.05;;;11.70;99.90;;;;;;5082571;28;20518;-73
2023/04/07 11:01:05;;;;;;;9.82;7.13;;;11.70;99.90;;;;;;5079374;28;20089;-75
2023/04/07 11:03:36;;;;;;;9.63;7.80;;;11.80;99.90;;;;;;5091406;28;20100;-75
2023/04/07 11:06:10;;;;;;;11.15;7.90;;;12.00;99.90;;;;;;5091787;28;20040;-72
2023/04/07 11:08:37;;;;;;;9.20;7.15;;;12.00;99.90;;;;;;5091733;28;20037;-73
2023/04/07 11:11:08;;;;;;;10.35;7.88;;;12.10;99.90;;;;;;5092142;28;20376;-74
2023/04/07 11:13:49;;;;;;;9.93;7.70;;;12.10;99.90;;;;;;5091760;28;20101;-75
2023/04/07 11:16:17;;;;;;;11.23;7.63;;;12.10;99.90;;;;;;5091662;28;20031;-73
2023/04/07 11:18:45;;;;;;;11.85;7.80;;;12.20;99.90;;;;;;5091569;28;20071;-74
2023/04/07 11:21:10;;;;;;;8.98;7.15;;;12.20;99.90;;;;;;5090756;28;20040;-75
2023/04/07 11:23:45;;;;;;;9.88;8.07;;;12.20;99.90;;;;;;5090762;28;20036;-74
2023/04/07 11:26:13;;;;;;;9.77;7.43;;;12.10;99.90;;;;;;5091626;28;20044;-74
2023/04/07 11:28:45;;;;;;;9.85;7.50;;;12.10;99.90;;;;;;5090467;28;20039;-74
2023/04/07 11:31:11;;;;;;;11.30;8.10;;;12.10;99.90;;;;;;5075921;28;20079;-74
2023/04/07 11:33:38;;;;;;;9.73;8.45;;;12.20;99.90;;;;;;5091311;28;20512;-71
2023/04/07 11:36:05;;;;;;;12.05;9.10;;;12.20;99.90;;;;;;5090948;28;20162;-71
2023/04/07 11:38:36;;;;;;;9.63;7.95;;;12.30;99.90;;;;;;5089583;28;20040;-71
2023/04/07 11:41:11;;;;;;;10.15;7.60;;;12.30;99.90;;;;;;5081962;28;20541;-72
2023/04/07 11:43:36;;;;;;;11.63;8.70;;;12.40;99.90;;;;;;5090674;28;20079;-71
2023/04/07 11:46:10;;;;;;;10.85;7.70;;;12.40;99.90;;;;;;5089694;28;20071;-72
2023/04/07 11:48:39;;;;;;;10.55;8.07;;;12.50;99.90;;;;;;5090148;28;20051;-71
2023/04/07 11:51:05;;;;;;;8.98;7.45;;;12.40;99.90;;;;;;5085199;28;20028;-71
2023/04/07 11:53:38;;;;;;;10.07;8.40;;;12.50;99.90;;;;;;5071051;28;20033;-72
2023/04/07 11:56:06;;;;;;;11.05;8.40;;;12.50;99.90;;;;;;5070736;28;20115;-74
2023/04/07 11:58:32;;;;;;;10.60;8.30;;;12.50;99.90;;;;;;5069500;28;20049;-74
2023/04/07 12:01:03;;;;;;;11.20;7.72;;;12.50;99.90;;;;;;5071176;28;20461;-73
2023/04/07 12:03:29;;;;;;;11.50;8.32;;;12.50;99.90;;;;;;5070844;28;20044;-75
2023/04/07 12:05:55;;;;;;;10.63;8.18;;;12.60;99.90;;;;;;5069520;28;20040;-73
2023/04/07 12:08:35;;;;;;;10.88;8.48;;;12.60;99.90;;;;;;5074032;28;20036;-74
2023/04/07 12:11:04;;;;;;;11.45;8.60;;;12.90;99.90;;;;;;5078541;28;20500;-74
2023/04/07 12:13:30;;;;;;;10.98;8.32;;;13.10;99.90;;;;;;5070922;28;20427;-74
2023/04/07 12:15:58;;;;;;;10.55;8.55;;;13.10;99.90;;;;;;5069548;28;20044;-74
2023/04/07 12:18:24;;;;;;;11.52;8.57;;;13.30;99.90;;;;;;5070676;28;20044;-75
2023/04/07 12:20:50;;;;;;;10.73;7.80;;;13.40;99.90;;;;;;5070787;28;20673;-74
2023/04/07 12:23:15;;;;;;;10.13;9.00;;;13.30;99.90;;;;;;5070650;28;20036;-75
2023/04/07 12:25:41;;;;;;;11.57;8.57;;;13.20;99.90;;;;;;5088524;28;20046;-75
2023/04/07 12:28:06;;;;;;;10.45;8.90;;;13.20;99.90;;;;;;5079122;28;20123;-74
2023/04/07 12:30:32;;;;;;;13.65;8.50;;;13.20;99.90;;;;;;5070597;28;20060;-74
2023/04/07 12:32:57;;;;;;;11.35;9.15;;;13.10;99.90;;;;;;5089845;28;20032;-74
2023/04/07 12:35:23;;;;;;;10.27;8.27;;;13.20;99.90;;;;;;5090793;28;20112;-74
2023/04/07 12:37:50;;;;;;;10.40;8.32;;;13.20;99.90;;;;;;5090904;28;20115;-75